createdAt,value
2018-03-29T00:00:08.067Z,84.00
2018-03-29T00:04:59.444Z,85.10
2018-03-29T00:09:50.827Z,84.00
2018-03-29T00:14:42.999Z,84.40
2018-03-29T00:19:34.428Z,84.40
2018-03-29T00:24:25.857Z,85.00
2018-03-29T00:29:17.976Z,84.20
2018-03-29T00:34:09.370Z,84.10
2018-03-29T00:39:00.773Z,84.00
2018-03-29T00:43:52.122Z,83.80
2018-03-29T00:48:43.503Z,82.40
2018-03-29T00:53:44.416Z,82.70
2018-03-29T00:58:35.787Z,82.60
2018-03-29T01:03:27.947Z,82.50
2018-03-29T01:08:20.055Z,82.30
2018-03-29T01:13:12.288Z,82.50
2018-03-29T01:18:03.691Z,82.40
2018-03-29T01:22:55.129Z,82.80
2018-03-29T01:27:46.537Z,82.20
2018-03-29T01:32:38.899Z,81.40
2018-03-29T01:37:31.482Z,80.70
2018-03-29T01:42:22.882Z,80.70
2018-03-29T01:47:15.002Z,80.20
2018-03-29T01:52:06.410Z,80.10
2018-03-29T01:56:57.798Z,80.30
2018-03-29T02:01:49.984Z,81.30
2018-03-29T02:06:41.353Z,81.20
2018-03-29T02:11:32.722Z,81.10
2018-03-29T02:16:24.100Z,81.10
2018-03-29T02:21:15.527Z,80.60
2018-03-29T02:26:06.895Z,80.30
2018-03-29T02:31:00.031Z,80.00
2018-03-29T02:35:51.433Z,79.90
2018-03-29T02:40:42.835Z,78.70
2018-03-29T02:45:34.950Z,78.00
2018-03-29T02:50:26.336Z,78.60
2018-03-29T02:55:17.720Z,78.20
2018-03-29T03:00:09.120Z,77.00
2018-03-29T03:05:00.520Z,75.70
2018-03-29T03:09:51.983Z,75.50
2018-03-29T03:14:43.414Z,76.10
2018-03-29T03:19:34.827Z,76.50
2018-03-29T03:24:26.228Z,76.00
2018-03-29T03:29:18.382Z,77.30
2018-03-29T03:34:10.541Z,77.10
2018-03-29T03:39:01.931Z,77.00
2018-03-29T03:43:53.416Z,76.60
2018-03-29T03:48:44.807Z,75.30
2018-03-29T03:53:36.906Z,77.00
2018-03-29T03:58:28.318Z,76.90
2018-03-29T04:03:19.733Z,77.40
2018-03-29T04:08:11.893Z,78.40
2018-03-29T04:13:03.281Z,78.30
2018-03-29T04:17:54.732Z,78.20
2018-03-29T04:22:46.895Z,76.70
2018-03-29T04:27:39.018Z,77.50
2018-03-29T04:32:30.392Z,77.50
2018-03-29T04:37:21.833Z,77.30
2018-03-29T04:42:13.246Z,77.50
2018-03-29T04:47:04.734Z,76.70
2018-03-29T04:51:56.140Z,77.00
2018-03-29T04:56:47.518Z,77.00
2018-03-29T05:01:39.648Z,78.00
2018-03-29T05:06:31.027Z,77.90
2018-03-29T05:11:22.404Z,78.40
2018-03-29T05:16:13.792Z,78.50
2018-03-29T05:21:05.225Z,78.30
2018-03-29T05:26:09.116Z,78.70
2018-03-29T05:31:01.250Z,76.90
2018-03-29T05:35:52.634Z,76.80
2018-03-29T05:40:44.039Z,76.50
2018-03-29T05:45:36.240Z,76.60
2018-03-29T05:50:27.729Z,76.40
2018-03-29T05:55:19.235Z,75.90
2018-03-29T06:00:10.642Z,75.20
2018-03-29T06:05:02.062Z,75.10
2018-03-29T06:09:53.430Z,75.10
2018-03-29T06:14:44.830Z,74.80
2018-03-29T06:19:36.257Z,74.30
2018-03-29T06:24:27.686Z,74.20
2018-03-29T06:29:19.065Z,73.80
2018-03-29T06:34:11.235Z,73.00
2018-03-29T06:39:02.694Z,72.90
2018-03-29T06:43:54.151Z,72.50
2018-03-29T06:48:45.543Z,72.30
2018-03-29T06:53:36.901Z,72.20
2018-03-29T06:58:28.298Z,72.00
2018-03-29T07:03:19.723Z,71.30
2018-03-29T07:08:11.118Z,70.60
2018-03-29T07:13:02.535Z,69.70
2018-03-29T07:17:53.945Z,69.20
2018-03-29T07:22:46.400Z,69.60
2018-03-29T07:27:37.902Z,69.60
2018-03-29T07:32:29.323Z,68.90
2018-03-29T07:37:21.472Z,67.80
2018-03-29T07:42:13.849Z,68.20
2018-03-29T07:47:05.487Z,68.20
2018-03-29T07:51:56.963Z,67.70
2018-03-29T07:56:48.369Z,68.10
2018-03-29T08:01:39.806Z,67.60
2018-03-29T08:06:32.049Z,68.10
2018-03-29T08:11:23.532Z,67.30
2018-03-29T08:16:15.645Z,65.10
2018-03-29T08:21:08.067Z,65.00
2018-03-29T08:25:59.486Z,65.30
2018-03-29T08:30:50.948Z,66.00
2018-03-29T08:35:42.356Z,66.30
2018-03-29T08:40:33.746Z,65.70
2018-03-29T08:45:25.145Z,64.00
2018-03-29T08:50:17.247Z,63.40
2018-03-29T08:55:09.407Z,62.90
2018-03-29T09:00:01.872Z,61.80
2018-03-29T09:04:53.321Z,61.80
2018-03-29T09:09:44.736Z,57.50
2018-03-29T09:14:36.214Z,55.20
2018-03-29T09:19:27.909Z,57.50
2018-03-29T09:24:19.353Z,58.40
2018-03-29T09:29:10.718Z,59.90
2018-03-29T09:34:02.130Z,59.60
2018-03-29T09:38:53.515Z,60.30
2018-03-29T09:43:45.641Z,56.70
2018-03-29T09:48:37.025Z,56.60
2018-03-29T09:53:28.389Z,55.10
2018-03-29T09:58:19.779Z,51.30
2018-03-29T10:03:11.270Z,47.70
2018-03-29T10:08:03.427Z,43.30
2018-03-29T10:12:55.624Z,41.90
2018-03-29T10:17:47.057Z,41.80
2018-03-29T10:22:38.470Z,44.00
2018-03-29T10:27:29.895Z,46.70
2018-03-29T10:32:21.271Z,48.60
2018-03-29T10:37:12.640Z,50.40
2018-03-29T10:42:04.786Z,52.60
2018-03-29T10:46:56.910Z,52.30
2018-03-29T10:51:48.405Z,52.20
2018-03-29T10:56:39.793Z,52.40
2018-03-29T11:01:31.956Z,53.30
2018-03-29T11:06:23.345Z,53.20
2018-03-29T11:11:14.721Z,52.70
2018-03-29T11:16:07.255Z,49.90
2018-03-29T11:20:58.672Z,47.30
2018-03-29T11:25:50.321Z,46.60
2018-03-29T11:30:42.452Z,44.40
2018-03-29T11:35:33.855Z,44.30
2018-03-29T11:40:25.261Z,45.20
2018-03-29T11:45:17.037Z,41.40
2018-03-29T11:50:08.576Z,39.60
2018-03-29T11:54:59.920Z,41.80
2018-03-29T11:59:51.342Z,40.90
2018-03-29T12:04:42.728Z,40.60
2018-03-29T12:09:34.129Z,37.60
2018-03-29T12:14:25.623Z,40.60
2018-03-29T12:19:17.648Z,36.70
2018-03-29T12:24:09.166Z,36.60
2018-03-29T12:29:00.548Z,36.60
2018-03-29T12:33:52.003Z,36.10
2018-03-29T12:38:43.381Z,44.40
2018-03-29T12:43:34.823Z,47.60
2018-03-29T12:48:26.235Z,51.20
2018-03-29T12:53:17.636Z,60.40
2018-03-29T12:58:10.712Z,59.60
2018-03-29T13:03:02.929Z,55.70
2018-03-29T13:07:54.310Z,55.70
2018-03-29T13:12:45.787Z,54.70
2018-03-29T13:17:37.191Z,54.30
2018-03-29T13:22:29.488Z,54.90
2018-03-29T13:27:20.922Z,55.10
2018-03-29T13:32:12.355Z,52.30
2018-03-29T13:37:03.745Z,50.80
2018-03-29T13:41:55.123Z,49.00
2018-03-29T13:46:46.583Z,48.00
2018-03-29T13:51:38.027Z,47.80
2018-03-29T13:56:29.439Z,47.20
2018-03-29T14:01:21.547Z,45.40
2018-03-29T14:06:12.968Z,45.30
2018-03-29T14:11:04.374Z,44.50
2018-03-29T14:15:55.769Z,45.50
2018-03-29T14:20:48.114Z,44.70
2018-03-29T14:25:40.274Z,40.80
2018-03-29T14:30:32.419Z,41.80
2018-03-29T14:35:24.578Z,40.40
2018-03-29T14:40:15.981Z,40.30
2018-03-29T14:45:08.255Z,39.70
2018-03-29T14:50:00.392Z,40.90
2018-03-29T14:54:52.515Z,39.60
2018-03-29T14:59:43.945Z,39.50
2018-03-29T15:04:35.888Z,39.80
2018-03-29T15:09:27.315Z,40.50
2018-03-29T15:14:18.702Z,39.60
2018-03-29T15:19:10.035Z,40.10
2018-03-29T15:24:01.903Z,39.90
2018-03-29T15:28:53.275Z,40.40
2018-03-29T15:33:44.655Z,39.60
2018-03-29T15:38:37.421Z,41.00
2018-03-29T15:43:28.918Z,39.20
2018-03-29T15:48:21.125Z,38.00
2018-03-29T15:53:12.576Z,37.90
2018-03-29T15:58:04.033Z,39.30
2018-03-29T16:02:56.207Z,39.20
2018-03-29T16:07:47.591Z,39.10
2018-03-29T16:12:39.029Z,40.00
2018-03-29T16:17:30.395Z,38.30
2018-03-29T16:22:21.919Z,38.60
2018-03-29T16:27:14.040Z,39.10
2018-03-29T16:32:05.436Z,39.10
2018-03-29T16:36:56.798Z,40.40
2018-03-29T16:41:48.240Z,41.00
2018-03-29T16:46:39.655Z,40.90
2018-03-29T16:51:31.051Z,40.20
2018-03-29T16:56:22.485Z,40.30
2018-03-29T17:01:13.900Z,40.80
2018-03-29T17:06:05.333Z,41.50
2018-03-29T17:10:56.712Z,41.80
2018-03-29T17:15:49.575Z,43.80
2018-03-29T17:20:41.003Z,43.70
2018-03-29T17:25:32.375Z,43.30
2018-03-29T17:30:23.738Z,42.90
2018-03-29T17:35:15.102Z,45.00
2018-03-29T17:40:06.573Z,45.50
2018-03-29T17:44:58.005Z,46.20
2018-03-29T17:49:49.395Z,47.10
2018-03-29T17:54:41.528Z,48.40
2018-03-29T17:59:32.917Z,48.40
2018-03-29T18:04:24.431Z,49.30
2018-03-29T18:09:16.618Z,49.60
2018-03-29T18:14:08.793Z,49.50
2018-03-29T18:19:00.158Z,50.80
2018-03-29T18:23:53.156Z,52.80
2018-03-29T18:28:44.577Z,52.20
2018-03-29T18:33:35.983Z,53.00
2018-03-29T18:38:27.413Z,54.70
2018-03-29T18:43:18.790Z,56.50
2018-03-29T18:48:10.191Z,57.60
2018-03-29T18:53:02.336Z,59.10
2018-03-29T18:57:54.538Z,60.50
2018-03-29T19:02:45.911Z,60.40
2018-03-29T19:07:38.046Z,61.60
2018-03-29T19:12:29.597Z,61.40
2018-03-29T19:17:21.752Z,61.80
2018-03-29T19:22:13.945Z,62.50
2018-03-29T19:27:05.486Z,62.40
2018-03-29T19:31:56.898Z,62.60
2018-03-29T19:36:48.269Z,62.50
2018-03-29T19:41:39.677Z,63.10
2018-03-29T19:46:31.052Z,63.50
2018-03-29T19:51:23.201Z,64.30
2018-03-29T19:56:15.358Z,64.30
2018-03-29T20:01:07.499Z,65.00
2018-03-29T20:05:59.655Z,65.30
2018-03-29T20:10:51.811Z,66.20
2018-03-29T20:15:43.302Z,66.10
2018-03-29T20:20:35.001Z,66.60
2018-03-29T20:25:26.419Z,67.10
2018-03-29T20:30:17.854Z,67.10
2018-03-29T20:35:09.234Z,67.60
2018-03-29T20:40:00.819Z,67.70
2018-03-29T20:44:52.197Z,68.10
2018-03-29T20:49:44.972Z,69.00
2018-03-29T20:54:36.438Z,69.60
2018-03-29T20:59:28.569Z,69.50
2018-03-29T21:04:20.968Z,69.30
2018-03-29T21:09:12.346Z,69.60
2018-03-29T21:14:03.780Z,70.10
2018-03-29T21:18:55.185Z,71.00
2018-03-29T21:23:46.687Z,71.50
2018-03-29T21:28:38.078Z,71.80
2018-03-29T21:33:30.282Z,72.10
2018-03-29T21:38:21.715Z,72.10
2018-03-29T21:43:13.162Z,72.40
2018-03-29T21:48:04.561Z,72.80
2018-03-29T21:52:55.979Z,72.90
2018-03-29T21:57:47.386Z,72.50
2018-03-29T22:02:39.596Z,72.10
2018-03-29T22:07:30.937Z,72.00
2018-03-29T22:12:22.352Z,72.10
2018-03-29T22:17:13.818Z,71.70
2018-03-29T22:22:05.337Z,71.60
2018-03-29T22:26:56.852Z,71.50
2018-03-29T22:31:48.219Z,71.00
2018-03-29T22:36:39.741Z,71.30
2018-03-29T22:41:31.074Z,70.90
2018-03-29T22:46:22.474Z,71.20
2018-03-29T22:51:13.877Z,71.20
2018-03-29T22:56:05.282Z,70.80
2018-03-29T23:00:57.439Z,70.70
2018-03-29T23:05:49.588Z,70.60
2018-03-29T23:10:41.784Z,70.70
2018-03-29T23:15:34.165Z,70.60
2018-03-29T23:20:26.983Z,71.30
2018-03-29T23:25:18.377Z,71.60
2018-03-29T23:30:10.610Z,71.50
2018-03-29T23:35:02.813Z,71.10
2018-03-29T23:39:54.185Z,71.10
2018-03-29T23:44:45.625Z,70.90
2018-03-29T23:49:36.994Z,70.50
2018-03-29T23:54:29.145Z,70.10
2018-03-29T23:59:20.527Z,70.70
